Time;durP1;ratioP1;P1;durP2;ratioP2;P2;SDS_P1;SDS_P2;PMS_P1;PMS_P2;Temp;Humidity;BMP_temperature;BMP_pressure;BME280_temperature;BME280_humidity;BME280_pressure;Samples;Min_cycle;Max_cycle;Signal;HPM_P1;HPM_P2
2023/03/23 00:01:45;;;;;;;4.87;4.47;;;11.60;64.40;;;;;;6274919;28;20320;-83
2023/03/23 00:04:50;;;;;;;5.23;4.80;;;11.60;64.40;;;;;;6279287;28;20237;-84
2023/03/23 00:07:55;;;;;;;4.63;4.40;;;11.50;64.70;;;;;;6301695;28;20225;-86
2023/03/23 00:10:57;;;;;;;4.50;4.30;;;11.50;64.80;;;;;;6268419;28;20226;-86
2023/03/23 00:14:01;;;;;;;4.93;4.53;;;11.50;64.90;;;;;;6272637;28;20230;-85
2023/03/23 00:17:03;;;;;;;4.20;4.07;;;11.40;65.20;;;;;;6274017;28;20283;-85
2023/03/23 00:20:11;;;;;;;4.70;4.50;;;11.40;65.20;;;;;;6266905;28;20225;-84
2023/03/23 00:23:18;;;;;;;4.63;4.40;;;11.30;65.20;;;;;;6284525;28;20264;-84
2023/03/23 00:26:20;;;;;;;4.20;4.00;;;11.30;65.20;;;;;;6251517;28;20265;-84
2023/03/23 00:29:24;;;;;;;4.37;4.27;;;11.30;65.20;;;;;;6230343;28;20254;-83
2023/03/23 00:32:27;;;;;;;5.57;5.27;;;11.20;65.20;;;;;;6242369;28;20245;-84
2023/03/23 00:35:31;;;;;;;4.70;4.50;;;11.30;65.30;;;;;;6256511;28;20237;-84
2023/03/23 00:38:33;;;;;;;4.80;4.60;;;11.30;65.30;;;;;;6260516;28;20433;-84
2023/03/23 00:41:36;;;;;;;4.60;4.50;;;11.20;65.30;;;;;;6270029;28;20233;-84
2023/03/23 00:44:39;;;;;;;4.53;4.43;;;11.10;65.30;;;;;;6249012;28;20254;-86
2023/03/23 00:47:46;;;;;;;4.60;4.40;;;11.10;65.40;;;;;;6256924;28;20238;-83
2023/03/23 00:50:52;;;;;;;4.70;4.50;;;11.10;65.40;;;;;;6262339;28;20625;-83
2023/03/23 00:53:54;;;;;;;4.87;4.53;;;11.10;65.60;;;;;;6257343;28;20513;-84
2023/03/23 00:56:56;;;;;;;4.93;4.63;;;11.00;65.60;;;;;;6233046;28;20225;-83
2023/03/23 00:59:58;;;;;;;4.43;4.23;;;11.00;65.80;;;;;;6238445;28;20253;-83
2023/03/23 01:03:01;;;;;;;4.53;4.23;;;11.00;65.90;;;;;;6251556;28;20241;-84
2023/03/23 01:06:12;;;;;;;4.60;4.40;;;11.00;65.70;;;;;;6243011;28;20250;-84
2023/03/23 01:09:16;;;;;;;5.00;4.70;;;10.90;65.70;;;;;;6237080;28;20238;-82
2023/03/23 01:12:18;;;;;;;4.50;4.30;;;10.90;65.90;;;;;;6253526;28;20244;-83
2023/03/23 01:15:21;;;;;;;4.83;4.50;;;10.90;65.90;;;;;;6251202;28;20273;-84
2023/03/23 01:18:24;;;;;;;4.83;4.40;;;10.80;66.10;;;;;;6228681;28;20329;-84
2023/03/23 01:21:27;;;;;;;5.43;4.60;;;10.80;66.10;;;;;;6251522;28;20244;-84
2023/03/23 01:24:29;;;;;;;4.50;4.30;;;10.80;66.00;;;;;;6244645;28;20237;-83
2023/03/23 01:27:31;;;;;;;5.10;4.60;;;10.80;65.90;;;;;;6265439;28;20233;-83
2023/03/23 01:30:34;;;;;;;5.67;4.80;;;10.80;66.00;;;;;;6251918;28;20233;-83
2023/03/23 01:33:36;;;;;;;5.10;4.67;;;10.80;66.00;;;;;;6252081;28;20247;-84
2023/03/23 01:36:40;;;;;;;5.20;4.90;;;10.70;66.20;;;;;;6259594;28;20229;-84
2023/03/23 01:39:42;;;;;;;4.13;4.03;;;10.70;66.30;;;;;;6251838;28;20225;-83
2023/03/23 01:42:44;;;;;;;5.30;4.90;;;10.70;66.20;;;;;;6258337;28;20352;-83
2023/03/23 01:45:47;;;;;;;4.97;4.67;;;10.60;66.50;;;;;;6256100;28;20321;-83
2023/03/23 01:48:49;;;;;;;4.80;4.47;;;10.60;66.50;;;;;;6247293;28;20449;-83
2023/03/23 01:51:57;;;;;;;4.57;4.30;;;10.60;66.50;;;;;;6249945;28;20426;-82
2023/03/23 01:54:59;;;;;;;4.70;4.50;;;10.60;66.50;;;;;;6231092;28;20245;-83
2023/03/23 01:58:01;;;;;;;4.97;4.77;;;10.60;66.50;;;;;;6220143;28;20240;-85
2023/03/23 02:01:07;;;;;;;5.90;5.40;;;10.60;66.40;;;;;;6246371;28;20717;-83
2023/03/23 02:04:09;;;;;;;5.30;5.00;;;10.60;66.50;;;;;;6244016;28;20615;-84
2023/03/23 02:07:15;;;;;;;4.40;4.20;;;10.60;66.60;;;;;;6233938;28;20231;-84
2023/03/23 02:10:17;;;;;;;4.93;4.73;;;10.60;66.50;;;;;;6243825;28;20254;-84
2023/03/23 02:13:19;;;;;;;4.50;4.40;;;10.60;66.60;;;;;;6235108;28;20728;-83
2023/03/23 02:16:34;;;;;;;5.03;4.67;;;10.60;66.60;;;;;;6242199;28;20321;-84
2023/03/23 02:20:06;;;;;;;4.83;4.53;;;10.50;66.70;;;;;;6264928;28;20732;-83
2023/03/23 02:23:30;;;;;;;4.37;4.17;;;10.50;66.70;;;;;;6258456;28;20234;-82
2023/03/23 02:26:45;;;;;;;4.60;4.40;;;10.50;66.60;;;;;;6247736;28;20238;-83
2023/03/23 02:30:07;;;;;;;4.77;4.53;;;10.50;66.70;;;;;;6258508;28;20393;-84
2023/03/23 02:33:44;;;;;;;4.20;4.10;;;10.50;66.60;;;;;;6205938;28;20247;-84
2023/03/23 02:36:51;;;;;;;4.80;4.60;;;10.50;66.60;;;;;;6231326;28;20230;-83
2023/03/23 02:39:56;;;;;;;4.23;4.10;;;10.60;66.70;;;;;;6250063;28;20482;-83
2023/03/23 02:42:59;;;;;;;5.20;4.60;;;10.60;66.60;;;;;;6234712;28;20231;-84
2023/03/23 02:46:06;;;;;;;4.47;4.27;;;10.60;66.50;;;;;;6248462;28;20273;-83
2023/03/23 02:49:13;;;;;;;4.17;3.97;;;10.70;66.40;;;;;;6245847;28;20242;-84
2023/03/23 02:52:20;;;;;;;4.13;3.90;;;10.80;66.20;;;;;;6244222;28;20245;-83
2023/03/23 02:55:24;;;;;;;3.60;3.50;;;10.80;66.20;;;;;;6217407;28;20635;-81
2023/03/23 02:58:26;;;;;;;3.50;3.40;;;10.90;66.30;;;;;;6248673;28;20747;-83
2023/03/23 03:01:56;;;;;;;3.90;3.63;;;10.90;66.50;;;;;;6247027;28;20251;-84
2023/03/23 03:05:09;;;;;;;4.20;3.90;;;11.00;66.30;;;;;;6250408;28;20248;-84
2023/03/23 03:08:24;;;;;;;3.90;3.80;;;11.00;66.40;;;;;;6262851;28;20313;-84
2023/03/23 03:11:26;;;;;;;4.33;3.90;;;11.10;66.40;;;;;;6262969;28;20813;-83
2023/03/23 03:14:35;;;;;;;3.90;3.70;;;11.00;66.30;;;;;;6247101;28;20261;-83
2023/03/23 03:17:43;;;;;;;3.53;3.43;;;11.10;66.50;;;;;;6246114;28;20235;-83
2023/03/23 03:20:50;;;;;;;3.90;3.60;;;11.10;66.30;;;;;;6261946;28;20295;-82
2023/03/23 03:23:55;;;;;;;3.90;3.77;;;11.20;66.00;;;;;;6242635;28;20610;-83
2023/03/23 03:27:01;;;;;;;4.13;3.90;;;11.10;66.20;;;;;;6257015;28;20234;-84
2023/03/23 03:30:10;;;;;;;3.83;3.63;;;11.20;66.20;;;;;;6262838;28;20312;-84
2023/03/23 03:33:13;;;;;;;3.70;3.60;;;11.10;66.50;;;;;;6258743;28;20373;-85
2023/03/23 03:36:22;;;;;;;3.73;3.63;;;11.10;66.70;;;;;;6249112;28;20648;-84
2023/03/23 03:39:25;;;;;;;3.97;3.77;;;11.10;66.90;;;;;;6235114;28;20226;-83
2023/03/23 03:42:27;;;;;;;4.00;3.77;;;11.10;66.70;;;;;;6254911;28;20261;-82
2023/03/23 03:45:29;;;;;;;3.57;3.47;;;11.10;66.80;;;;;;6263068;28;20492;-83
2023/03/23 03:48:32;;;;;;;4.07;3.80;;;11.10;66.90;;;;;;6249683;28;20238;-82
2023/03/23 03:51:36;;;;;;;3.80;3.63;;;11.10;66.90;;;;;;6259387;28;20263;-84
2023/03/23 03:54:40;;;;;;;4.23;4.03;;;11.10;67.20;;;;;;6243611;28;20283;-83
2023/03/23 03:57:42;;;;;;;3.60;3.50;;;11.10;67.40;;;;;;6244645;28;20234;-83
2023/03/23 04:00:47;;;;;;;4.20;3.90;;;11.00;67.40;;;;;;6224653;28;20280;-84
2023/03/23 04:03:50;;;;;;;3.70;3.60;;;11.10;67.10;;;;;;6243148;28;20348;-83
2023/03/23 04:06:53;;;;;;;4.00;3.87;;;11.10;67.00;;;;;;6258567;28;20756;-83
2023/03/23 04:09:55;;;;;;;4.20;4.00;;;11.10;67.20;;;;;;6248288;28;20237;-83
2023/03/23 04:12:58;;;;;;;4.03;3.87;;;11.10;67.30;;;;;;6237172;28;20233;-83
2023/03/23 04:16:01;;;;;;;3.60;3.50;;;11.10;67.20;;;;;;6249594;28;20252;-81
2023/03/23 04:19:04;;;;;;;3.50;3.40;;;11.00;67.30;;;;;;6265326;28;20229;-84
2023/03/23 04:22:07;;;;;;;3.23;3.23;;;11.00;67.30;;;;;;6251895;28;20249;-84
2023/03/23 04:25:11;;;;;;;3.60;3.50;;;11.00;67.60;;;;;;6266455;28;20261;-83
2023/03/23 04:28:13;;;;;;;3.40;3.30;;;11.00;67.90;;;;;;6286533;28;20585;-83
2023/03/23 04:31:16;;;;;;;3.70;3.60;;;11.00;68.10;;;;;;6252188;28;20234;-83
2023/03/23 04:34:18;;;;;;;3.90;3.80;;;11.00;68.20;;;;;;6247564;28;20301;-82
2023/03/23 04:37:25;;;;;;;3.63;3.53;;;10.90;68.30;;;;;;6241853;28;20241;-80
2023/03/23 04:40:27;;;;;;;4.73;4.33;;;11.00;68.40;;;;;;6246251;28;21439;-79
2023/03/23 04:43:30;;;;;;;4.53;4.17;;;10.90;68.50;;;;;;6256758;28;20248;-82
2023/03/23 04:46:32;;;;;;;4.37;4.17;;;11.00;68.70;;;;;;6249751;28;20804;-81
2023/03/23 04:49:35;;;;;;;4.80;4.50;;;10.90;68.70;;;;;;6245415;28;20248;-82
2023/03/23 04:52:44;;;;;;;4.90;4.53;;;11.00;68.80;;;;;;6261445;28;20240;-82
2023/03/23 04:55:48;;;;;;;4.47;4.37;;;11.00;68.60;;;;;;6239852;28;20238;-81
2023/03/23 04:58:51;;;;;;;3.57;3.47;;;11.00;68.70;;;;;;6242140;28;21644;-82
2023/03/23 05:01:53;;;;;;;4.00;3.90;;;10.90;68.80;;;;;;6258657;28;20387;-84
2023/03/23 05:04:56;;;;;;;4.40;4.03;;;10.90;68.90;;;;;;6251784;28;20759;-83
2023/03/23 05:07:59;;;;;;;4.20;4.10;;;10.90;69.10;;;;;;6259073;28;20240;-82
2023/03/23 05:11:02;;;;;;;3.90;3.80;;;10.90;69.20;;;;;;6258110;28;20257;-82
2023/03/23 05:14:04;;;;;;;4.37;4.10;;;10.90;69.20;;;;;;6254268;28;20230;-83
2023/03/23 05:17:07;;;;;;;4.43;4.33;;;10.90;69.80;;;;;;6239676;28;20288;-82
2023/03/23 05:20:12;;;;;;;4.53;4.33;;;11.00;69.60;;;;;;6247809;28;20322;-82
2023/03/23 05:23:16;;;;;;;4.37;4.10;;;11.10;69.60;;;;;;6250067;28;20395;-81
2023/03/23 05:26:18;;;;;;;4.87;4.47;;;11.00;70.00;;;;;;6246346;28;20245;-82
2023/03/23 05:29:20;;;;;;;3.90;3.80;;;10.90;70.20;;;;;;6252477;28;20250;-82
2023/03/23 05:32:29;;;;;;;3.90;3.80;;;10.90;70.50;;;;;;6254548;28;20484;-81
2023/03/23 05:35:31;;;;;;;4.30;4.10;;;10.80;71.10;;;;;;6260941;28;20326;-83
2023/03/23 05:38:36;;;;;;;4.37;3.97;;;10.80;70.80;;;;;;6242723;28;20272;-82
2023/03/23 05:41:40;;;;;;;4.60;4.40;;;10.80;71.10;;;;;;6251677;28;20287;-82
2023/03/23 05:44:42;;;;;;;4.83;4.43;;;10.80;71.70;;;;;;6243780;28;20253;-83
2023/03/23 05:47:44;;;;;;;4.00;3.90;;;10.70;71.90;;;;;;6262302;28;20730;-83
2023/03/23 05:50:48;;;;;;;4.40;4.20;;;10.70;72.20;;;;;;6260823;28;20722;-83
2023/03/23 05:53:52;;;;;;;4.70;4.30;;;10.70;72.30;;;;;;6249431;28;20230;-82
2023/03/23 05:56:54;;;;;;;4.30;4.13;;;10.70;72.80;;;;;;6258602;28;20319;-83
2023/03/23 05:59:57;;;;;;;4.80;4.50;;;10.60;73.20;;;;;;6250875;28;20397;-82
2023/03/23 06:02:59;;;;;;;4.33;4.07;;;10.60;73.70;;;;;;6262914;28;20253;-81
2023/03/23 06:06:01;;;;;;;4.23;4.03;;;10.60;73.90;;;;;;6258451;28;20245;-81
2023/03/23 06:09:05;;;;;;;3.90;3.73;;;10.50;74.50;;;;;;6246869;28;20246;-81
2023/03/23 06:12:10;;;;;;;4.13;3.97;;;10.50;74.80;;;;;;6251921;28;20238;-82
2023/03/23 06:15:12;;;;;;;4.40;4.20;;;10.50;75.00;;;;;;6247960;28;20713;-82
2023/03/23 06:18:14;;;;;;;3.90;3.80;;;10.50;75.50;;;;;;6260882;28;20711;-78
2023/03/23 06:21:18;;;;;;;4.03;3.70;;;10.40;76.00;;;;;;6259215;28;20302;-79
2023/03/23 06:24:22;;;;;;;4.00;3.90;;;10.40;76.10;;;;;;6260144;28;20225;-78
2023/03/23 06:27:24;;;;;;;10.60;3.73;;;10.40;76.30;;;;;;6248346;28;20360;-77
2023/03/23 06:30:26;;;;;;;3.90;3.67;;;10.30;76.90;;;;;;6241573;28;20254;-83
2023/03/23 06:33:29;;;;;;;4.30;4.10;;;10.30;77.20;;;;;;6260568;28;20225;-84
2023/03/23 06:36:31;;;;;;;4.23;3.90;;;10.30;77.30;;;;;;6260107;28;20230;-81
2023/03/23 06:39:35;;;;;;;3.57;3.47;;;10.20;77.80;;;;;;6258695;28;20498;-81
2023/03/23 06:42:37;;;;;;;4.07;3.83;;;10.30;77.50;;;;;;6249276;28;20234;-81
2023/03/23 06:45:40;;;;;;;4.50;4.13;;;10.30;77.50;;;;;;6259993;28;20283;-83
2023/03/23 06:48:42;;;;;;;4.03;3.77;;;10.30;77.50;;;;;;6256654;28;20245;-84
2023/03/23 06:51:44;;;;;;;3.70;3.60;;;10.30;77.50;;;;;;6258831;28;20229;-83
2023/03/23 06:54:48;;;;;;;4.13;4.03;;;10.40;77.50;;;;;;6254135;28;20226;-80
2023/03/23 06:57:50;;;;;;;4.03;3.90;;;10.40;77.60;;;;;;6253621;28;20280;-82
2023/03/23 07:00:56;;;;;;;3.97;3.77;;;10.40;77.80;;;;;;6260620;28;20575;-82
2023/03/23 07:03:58;;;;;;;4.00;3.80;;;10.40;77.80;;;;;;6249963;28;20302;-83
2023/03/23 07:07:01;;;;;;;4.97;4.47;;;10.50;77.90;;;;;;6245517;28;20601;-82
2023/03/23 07:10:06;;;;;;;3.87;3.70;;;10.50;77.90;;;;;;6270717;28;20225;-80
2023/03/23 07:13:08;;;;;;;3.90;3.70;;;10.60;78.00;;;;;;6273102;28;20226;-80
2023/03/23 07:16:10;;;;;;;4.20;4.00;;;10.50;78.20;;;;;;6283359;28;20253;-80
2023/03/23 07:19:12;;;;;;;4.63;4.40;;;10.50;78.10;;;;;;6264200;28;20385;-83
2023/03/23 07:22:16;;;;;;;4.93;4.33;;;10.50;78.20;;;;;;6283577;28;20236;-81
2023/03/23 07:25:19;;;;;;;4.10;3.80;;;10.60;78.20;;;;;;6289952;28;20225;-84
2023/03/23 07:28:21;;;;;;;4.00;3.80;;;10.50;78.30;;;;;;6284904;28;20216;-83
2023/03/23 07:31:24;;;;;;;4.50;4.20;;;10.60;78.20;;;;;;6271239;28;20237;-83
2023/03/23 07:34:26;;;;;;;4.17;3.97;;;10.60;78.10;;;;;;6286763;28;20226;-83
2023/03/23 07:37:29;;;;;;;3.90;3.80;;;10.60;78.10;;;;;;6257363;28;20233;-83
2023/03/23 07:40:34;;;;;;;4.53;4.10;;;10.70;78.10;;;;;;6251645;28;20218;-84
2023/03/23 07:43:36;;;;;;;5.10;4.60;;;10.60;78.40;;;;;;6290257;28;20233;-83
2023/03/23 07:46:38;;;;;;;4.60;4.20;;;10.60;78.40;;;;;;6286826;28;20218;-83
2023/03/23 07:49:41;;;;;;;4.37;4.10;;;10.70;78.30;;;;;;6280283;28;20249;-84
2023/03/23 07:52:43;;;;;;;5.00;4.53;;;10.70;78.50;;;;;;6284127;28;20419;-84
2023/03/23 07:55:47;;;;;;;4.53;4.33;;;10.80;78.60;;;;;;6282332;28;20222;-84
2023/03/23 07:58:49;;;;;;;4.87;4.53;;;10.90;78.30;;;;;;6272924;28;20235;-86
2023/03/23 08:01:51;;;;;;;4.40;4.30;;;10.90;78.40;;;;;;6289438;28;20232;-84
2023/03/23 08:04:55;;;;;;;4.20;4.00;;;10.80;78.30;;;;;;6271916;28;20243;-84
2023/03/23 08:07:59;;;;;;;5.20;4.90;;;10.90;77.90;;;;;;6274283;28;20260;-84
2023/03/23 08:11:03;;;;;;;5.33;4.43;;;10.90;77.80;;;;;;6269334;28;20234;-83
2023/03/23 08:14:06;;;;;;;4.37;3.90;;;10.90;77.50;;;;;;6269228;28;20398;-85
2023/03/23 08:17:08;;;;;;;4.30;4.10;;;11.00;77.60;;;;;;6229855;28;20217;-85
2023/03/23 08:20:13;;;;;;;4.03;3.83;;;11.10;77.70;;;;;;6278250;28;20233;-82
2023/03/23 08:23:16;;;;;;;4.20;4.10;;;11.10;77.70;;;;;;6284927;28;20218;-84
2023/03/23 08:26:19;;;;;;;4.57;4.27;;;11.20;77.20;;;;;;6298678;28;20225;-83
2023/03/23 08:29:21;;;;;;;4.03;3.80;;;11.20;76.90;;;;;;6263201;28;20820;-84
2023/03/23 08:32:24;;;;;;;4.40;4.20;;;11.30;76.50;;;;;;6265948;28;20286;-84
2023/03/23 08:35:26;;;;;;;4.23;3.93;;;11.30;76.40;;;;;;6257004;28;20310;-85
2023/03/23 08:38:29;;;;;;;4.13;3.93;;;11.30;76.40;;;;;;6247167;28;20368;-84
2023/03/23 08:41:33;;;;;;;4.37;4.07;;;11.30;76.20;;;;;;6248855;28;20257;-82
2023/03/23 08:44:36;;;;;;;4.50;4.30;;;11.40;76.00;;;;;;6248091;28;20364;-82
2023/03/23 08:47:40;;;;;;;4.17;3.83;;;11.30;75.90;;;;;;6240000;28;20613;-82
2023/03/23 08:50:43;;;;;;;4.13;3.83;;;11.30;76.10;;;;;;6241344;28;20778;-82
2023/03/23 08:53:45;;;;;;;4.10;3.70;;;11.40;75.60;;;;;;6242167;28;20250;-84
2023/03/23 08:56:48;;;;;;;4.20;3.90;;;11.50;75.30;;;;;;6264543;28;20616;-81
2023/03/23 08:59:51;;;;;;;4.00;3.90;;;11.50;75.00;;;;;;6273352;28;20240;-81
2023/03/23 09:02:54;;;;;;;4.37;4.13;;;11.60;75.20;;;;;;6277454;28;20234;-83
2023/03/23 09:05:59;;;;;;;4.00;3.80;;;11.70;74.70;;;;;;6286926;28;20318;-82
2023/03/23 09:09:06;;;;;;;4.10;3.90;;;11.70;74.70;;;;;;6267278;28;20752;-84
2023/03/23 09:12:10;;;;;;;3.93;3.73;;;11.90;74.40;;;;;;6249412;28;20245;-81
2023/03/23 09:15:15;;;;;;;3.80;3.70;;;12.00;73.70;;;;;;6236787;28;20288;-83
2023/03/23 09:18:18;;;;;;;3.87;3.57;;;12.00;73.80;;;;;;6273089;28;20303;-84
2023/03/23 09:21:21;;;;;;;4.20;3.97;;;12.10;73.60;;;;;;6234437;28;20246;-84
2023/03/23 09:24:23;;;;;;;3.60;3.50;;;12.00;73.60;;;;;;6242788;28;20313;-84
2023/03/23 09:27:28;;;;;;;4.23;4.03;;;12.10;72.90;;;;;;6250729;28;20234;-84
2023/03/23 09:30:33;;;;;;;4.10;3.90;;;12.00;72.90;;;;;;6247358;28;20364;-82
2023/03/23 09:33:36;;;;;;;4.10;3.73;;;12.10;73.40;;;;;;6288489;28;20712;-81
2023/03/23 09:36:39;;;;;;;3.50;3.40;;;12.20;73.00;;;;;;6297507;28;20220;-82
2023/03/23 09:39:41;;;;;;;3.70;3.50;;;12.30;73.10;;;;;;6281433;28;20246;-82
2023/03/23 09:43:06;;;;;;;3.73;3.63;;;12.50;72.60;;;;;;6278787;28;20237;-82
2023/03/23 09:46:29;;;;;;;3.83;3.63;;;12.50;72.20;;;;;;6265290;28;20230;-81
2023/03/23 09:49:35;;;;;;;3.80;3.60;;;12.70;71.80;;;;;;6277794;28;20210;-81
2023/03/23 09:52:42;;;;;;;3.47;3.37;;;12.80;71.30;;;;;;6288703;28;20310;-82
2023/03/23 09:55:45;;;;;;;3.70;3.60;;;12.90;71.70;;;;;;6273002;28;20249;-83
2023/03/23 09:58:56;;;;;;;3.93;3.80;;;12.90;70.70;;;;;;6287075;28;20222;-83
2023/03/23 10:02:04;;;;;;;3.50;3.40;;;13.10;70.50;;;;;;6292909;28;20267;-82
2023/03/23 10:05:24;;;;;;;3.60;3.50;;;13.30;69.40;;;;;;6295306;28;20237;-84
2023/03/23 10:08:29;;;;;;;3.87;3.53;;;13.50;68.90;;;;;;6280516;28;20651;-85
2023/03/23 10:11:42;;;;;;;3.23;3.23;;;13.50;68.70;;;;;;6265813;28;20234;-84
2023/03/23 10:15:08;;;;;;;3.47;3.27;;;13.60;68.40;;;;;;6260006;28;20631;-84
2023/03/23 10:18:16;;;;;;;3.37;3.17;;;13.60;68.00;;;;;;6255907;28;20229;-83
2023/03/23 10:21:22;;;;;;;3.20;3.00;;;13.50;68.10;;;;;;6266733;28;20332;-82
2023/03/23 10:24:35;;;;;;;3.30;3.10;;;13.60;67.40;;;;;;6258114;28;20246;-85
2023/03/23 10:27:44;;;;;;;3.20;3.00;;;13.50;67.90;;;;;;6249623;28;20226;-83
2023/03/23 10:30:51;;;;;;;3.53;3.43;;;13.50;67.50;;;;;;6263084;28;20252;-85
2023/03/23 10:33:56;;;;;;;3.20;3.10;;;13.50;67.80;;;;;;6244334;28;20230;-84
2023/03/23 10:37:06;;;;;;;3.50;3.37;;;13.60;67.20;;;;;;6242693;28;20291;-84
2023/03/23 10:40:16;;;;;;;3.00;2.80;;;13.70;67.20;;;;;;6248174;28;20296;-83
2023/03/23 10:43:19;;;;;;;3.40;3.20;;;13.90;66.40;;;;;;6243851;28;20237;-85
2023/03/23 10:46:30;;;;;;;3.20;3.10;;;14.00;66.50;;;;;;6257985;28;20329;-86
2023/03/23 10:49:38;;;;;;;3.10;3.00;;;14.10;65.70;;;;;;6270072;28;20265;-85
2023/03/23 10:52:42;;;;;;;2.77;2.67;;;14.00;65.90;;;;;;6269378;28;20244;-86
2023/03/23 10:55:46;;;;;;;3.13;3.10;;;13.90;66.10;;;;;;6275505;28;20213;-85
2023/03/23 10:58:49;;;;;;;2.87;2.77;;;13.90;66.50;;;;;;6272096;28;20229;-85
2023/03/23 11:01:55;;;;;;;3.40;3.30;;;14.00;66.60;;;;;;6281164;28;20291;-85
2023/03/23 11:05:01;;;;;;;3.80;3.60;;;14.10;65.90;;;;;;6293093;28;20222;-85
2023/03/23 11:08:04;;;;;;;2.83;2.80;;;14.10;65.30;;;;;;6291463;28;20236;-86
2023/03/23 11:11:13;;;;;;;2.93;2.83;;;14.10;65.30;;;;;;6287500;28;20255;-86
2023/03/23 11:14:18;;;;;;;3.17;3.07;;;14.20;65.70;;;;;;6257895;28;20237;-87
2023/03/23 11:17:26;;;;;;;3.17;3.10;;;14.20;65.10;;;;;;6263277;28;20862;-85
2023/03/23 11:20:30;;;;;;;3.10;3.00;;;14.20;64.80;;;;;;6269345;28;20234;-86
2023/03/23 11:23:36;;;;;;;3.03;2.93;;;14.20;64.70;;;;;;6261782;28;20227;-88
2023/03/23 11:26:39;;;;;;;2.57;2.57;;;14.30;64.30;;;;;;6266382;28;20283;-84
2023/03/23 11:29:48;;;;;;;5.07;4.77;;;14.30;64.30;;;;;;6254579;28;20325;-85
2023/03/23 11:32:53;;;;;;;3.47;3.17;;;14.30;64.70;;;;;;6242285;28;20249;-86
2023/03/23 11:35:56;;;;;;;2.93;2.83;;;14.40;64.00;;;;;;6258321;28;20238;-85
2023/03/23 11:38:58;;;;;;;3.50;3.30;;;14.40;64.10;;;;;;6248737;28;20236;-85
2023/03/23 11:42:02;;;;;;;3.10;2.90;;;14.50;64.20;;;;;;6263873;28;20242;-85
2023/03/23 11:45:20;;;;;;;3.03;2.93;;;14.70;63.80;;;;;;6266254;28;20233;-84
2023/03/23 11:48:30;;;;;;;3.07;2.90;;;14.70;63.30;;;;;;6253872;28;20234;-85
2023/03/23 11:51:40;;;;;;;2.60;2.50;;;14.80;62.30;;;;;;6249223;28;20234;-84
2023/03/23 11:54:48;;;;;;;3.10;2.90;;;14.80;62.70;;;;;;6244446;28;20336;-84
2023/03/23 11:57:50;;;;;;;3.10;3.00;;;14.70;62.70;;;;;;6249796;28;20238;-86
2023/03/23 12:00:57;;;;;;;3.00;2.90;;;14.80;62.40;;;;;;6240686;28;20242;-85
2023/03/23 12:04:16;;;;;;;3.00;2.90;;;14.80;62.70;;;;;;6244365;28;20245;-85
2023/03/23 12:07:41;;;;;;;3.10;2.87;;;14.70;62.70;;;;;;6249052;28;20338;-85
2023/03/23 12:10:51;;;;;;;2.80;2.70;;;14.80;62.50;;;;;;6236344;28;20348;-86
2023/03/23 12:14:03;;;;;;;3.10;3.00;;;15.00;62.20;;;;;;6234264;28;20315;-85
2023/03/23 12:17:16;;;;;;;2.90;2.80;;;15.00;61.90;;;;;;6248470;28;20717;-85
2023/03/23 12:20:30;;;;;;;3.30;3.10;;;15.00;61.40;;;;;;6256695;28;20243;-86
2023/03/23 12:23:40;;;;;;;3.80;3.23;;;15.00;61.40;;;;;;6267095;28;20283;-85
2023/03/23 12:26:48;;;;;;;2.70;2.70;;;15.20;61.40;;;;;;6266631;28;20237;-86
2023/03/23 12:30:02;;;;;;;3.60;2.70;;;15.20;60.90;;;;;;6244471;28;20273;-86
2023/03/23 12:33:26;;;;;;;3.53;3.30;;;15.00;60.70;;;;;;6243825;28;20325;-85
2023/03/23 12:36:43;;;;;;;3.60;2.90;;;15.00;61.30;;;;;;6245190;28;20309;-84
2023/03/23 12:40:23;;;;;;;3.17;2.97;;;15.00;61.00;;;;;;6242201;28;20297;-87
2023/03/23 12:43:32;;;;;;;3.03;2.93;;;14.90;61.70;;;;;;6247374;28;20257;-84
2023/03/23 12:46:52;;;;;;;3.13;2.93;;;15.00;61.10;;;;;;6235104;28;20234;-84
2023/03/23 12:49:57;;;;;;;3.33;3.20;;;15.00;61.00;;;;;;6250500;28;20288;-85
2023/03/23 12:53:08;;;;;;;3.00;2.90;;;15.00;60.80;;;;;;6244329;28;20529;-86
2023/03/23 12:56:17;;;;;;;2.87;2.77;;;15.00;61.10;;;;;;6242052;28;20246;-84
2023/03/23 12:59:26;;;;;;;2.77;2.77;;;15.00;60.50;;;;;;6245534;28;20242;-87
2023/03/23 13:02:32;;;;;;;3.60;3.40;;;15.30;60.60;;;;;;6243153;28;20241;-78
2023/03/23 13:05:42;;;;;;;3.07;2.90;;;15.50;61.00;;;;;;6238128;28;20340;-82
2023/03/23 13:08:51;;;;;;;2.90;2.80;;;15.60;59.70;;;;;;6253403;28;20284;-85
2023/03/23 13:11:55;;;;;;;3.93;3.37;;;15.80;59.30;;;;;;6244689;28;20316;-84
2023/03/23 13:15:06;;;;;;;6.77;2.83;;;15.80;59.70;;;;;;6257245;28;20238;-81
2023/03/23 13:18:18;;;;;;;3.03;2.80;;;16.00;58.60;;;;;;6252503;28;20237;-84
2023/03/23 13:21:25;;;;;;;2.90;2.80;;;16.00;58.40;;;;;;6243984;28;20473;-84
2023/03/23 13:24:33;;;;;;;3.07;2.90;;;16.00;58.20;;;;;;6269634;28;20249;-86
2023/03/23 13:27:35;;;;;;;3.13;2.97;;;16.00;58.30;;;;;;6233052;28;20238;-82
2023/03/23 13:30:38;;;;;;;3.47;3.37;;;16.00;58.10;;;;;;6247022;28;20265;-87
2023/03/23 13:33:40;;;;;;;3.40;3.30;;;16.00;57.90;;;;;;6255808;28;20241;-85
2023/03/23 13:36:45;;;;;;;3.37;3.07;;;15.90;58.40;;;;;;6249125;28;20810;-84
2023/03/23 13:39:55;;;;;;;2.77;2.70;;;16.00;58.60;;;;;;6234166;28;20711;-83
2023/03/23 13:42:59;;;;;;;3.27;3.03;;;16.00;57.50;;;;;;6263055;28;20236;-85
2023/03/23 13:46:11;;;;;;;3.30;2.70;;;16.00;57.70;;;;;;6225595;28;20317;-84
2023/03/23 13:49:22;;;;;;;3.17;2.50;;;16.30;56.50;;;;;;6257374;28;20292;-84
2023/03/23 13:52:26;;;;;;;3.60;3.30;;;16.30;56.70;;;;;;6249098;28;20230;-85
2023/03/23 13:55:42;;;;;;;3.10;3.00;;;16.20;56.50;;;;;;6245507;28;20242;-83
2023/03/23 13:58:51;;;;;;;3.03;2.70;;;16.40;55.90;;;;;;6251175;28;20303;-83
2023/03/23 14:01:55;;;;;;;3.00;2.80;;;16.40;56.00;;;;;;6259392;28;20645;-83
2023/03/23 14:04:57;;;;;;;2.80;2.57;;;16.60;55.60;;;;;;6252383;28;20253;-86
2023/03/23 14:08:01;;;;;;;2.87;2.63;;;16.70;55.60;;;;;;6256894;28;20762;-85
2023/03/23 14:11:14;;;;;;;4.00;2.77;;;16.70;54.70;;;;;;6238222;28;20243;-85
2023/03/23 14:14:24;;;;;;;2.50;2.40;;;16.80;54.00;;;;;;6242121;28;20239;-85
2023/03/23 14:17:28;;;;;;;3.50;2.70;;;16.70;54.00;;;;;;6227626;28;20592;-84
2023/03/23 14:20:34;;;;;;;2.80;2.70;;;16.70;53.50;;;;;;6257834;28;20241;-86
2023/03/23 14:23:36;;;;;;;2.70;2.50;;;16.50;54.20;;;;;;6259383;28;20781;-85
2023/03/23 14:26:42;;;;;;;2.80;2.60;;;16.60;54.60;;;;;;6260264;28;20592;-87
2023/03/23 14:29:44;;;;;;;2.83;2.40;;;16.80;53.90;;;;;;6259415;28;20234;-85
2023/03/23 14:32:48;;;;;;;2.57;2.37;;;16.80;54.40;;;;;;6258974;28;20277;-86
2023/03/23 14:35:50;;;;;;;3.17;2.97;;;16.80;54.50;;;;;;6252809;28;20241;-85
2023/03/23 14:39:07;;;;;;;3.17;2.87;;;16.60;54.30;;;;;;6271041;28;20229;-86
2023/03/23 14:42:15;;;;;;;3.23;2.93;;;16.40;54.50;;;;;;6244722;28;20238;-86
2023/03/23 14:45:19;;;;;;;4.60;4.20;;;16.20;55.10;;;;;;6256527;28;20229;-84
2023/03/23 14:48:22;;;;;;;2.67;2.47;;;16.00;55.60;;;;;;6257380;28;20254;-85
2023/03/23 14:51:24;;;;;;;2.97;2.60;;;15.80;55.80;;;;;;6244072;28;20508;-84
2023/03/23 14:54:29;;;;;;;3.50;2.97;;;15.70;56.20;;;;;;6232752;28;20261;-85
2023/03/23 14:57:35;;;;;;;2.80;2.70;;;15.60;56.60;;;;;;6244121;28;20232;-86
2023/03/23 15:00:43;;;;;;;3.20;2.83;;;15.60;56.50;;;;;;6238100;28;20227;-87
2023/03/23 15:03:55;;;;;;;3.10;2.90;;;15.60;57.10;;;;;;6257841;28;20786;-84
2023/03/23 15:07:01;;;;;;;3.57;2.57;;;15.60;57.20;;;;;;6266034;28;20244;-86
2023/03/23 15:10:07;;;;;;;2.97;2.57;;;15.80;57.20;;;;;;6235440;28;20687;-85
2023/03/23 15:13:17;;;;;;;3.03;2.80;;;16.00;56.90;;;;;;6253153;28;20245;-85
2023/03/23 15:16:21;;;;;;;2.90;2.70;;;16.20;57.20;;;;;;6260448;28;20245;-85
2023/03/23 15:19:26;;;;;;;3.37;3.03;;;16.40;56.80;;;;;;6253986;28;20602;-85
2023/03/23 15:22:30;;;;;;;2.83;2.73;;;16.30;56.60;;;;;;6255887;28;20391;-86
2023/03/23 15:25:39;;;;;;;3.07;2.70;;;16.20;56.90;;;;;;6251161;28;20735;-86
2023/03/23 15:28:42;;;;;;;3.43;2.63;;;16.20;57.20;;;;;;6255283;28;20237;-85
2023/03/23 15:31:47;;;;;;;2.83;2.73;;;16.20;56.90;;;;;;6245367;28;20246;-84
2023/03/23 15:34:49;;;;;;;4.87;4.43;;;16.10;57.10;;;;;;6253968;28;20233;-83
2023/03/23 15:38:00;;;;;;;2.80;2.70;;;16.00;56.20;;;;;;6255201;28;20245;-83
2023/03/23 15:41:24;;;;;;;2.73;2.57;;;16.00;56.10;;;;;;6252343;28;20238;-84
2023/03/23 15:44:31;;;;;;;5.60;2.73;;;16.00;55.60;;;;;;6237963;28;20234;-85
2023/03/23 15:47:39;;;;;;;4.37;2.83;;;15.90;55.70;;;;;;6255118;28;20265;-87
2023/03/23 15:50:42;;;;;;;4.00;2.60;;;15.80;56.00;;;;;;6254783;28;20256;-84
2023/03/23 15:53:44;;;;;;;2.50;2.40;;;15.80;55.00;;;;;;6233971;28;20248;-86
2023/03/23 15:56:47;;;;;;;4.00;2.60;;;15.80;55.00;;;;;;6243361;28;20261;-84
2023/03/23 15:59:51;;;;;;;3.00;2.80;;;15.80;54.90;;;;;;6239542;28;20245;-83
2023/03/23 16:02:56;;;;;;;3.17;2.67;;;15.70;54.40;;;;;;6265429;28;20241;-85
2023/03/23 16:06:02;;;;;;;2.93;2.83;;;15.70;54.50;;;;;;6271684;28;20681;-84
2023/03/23 16:09:09;;;;;;;2.70;2.60;;;15.70;54.70;;;;;;6277239;28;20514;-83